createdAt,value
2022-12-08T00:02:03.446Z,97160.97
2022-12-08T00:04:52.384Z,97153.75
2022-12-08T00:07:39.729Z,97162.50
2022-12-08T00:10:25.522Z,97157.25
2022-12-08T00:12:58.335Z,97151.13
2022-12-08T00:15:26.558Z,97159.88
2022-12-08T00:17:54.913Z,97159.88
2022-12-08T00:20:23.162Z,97157.38
2022-12-08T00:22:52.793Z,97160.00
2022-12-08T00:25:21.114Z,97158.34
2022-12-08T00:27:49.377Z,97153.09
2022-12-08T00:30:18.064Z,97153.22
2022-12-08T00:32:46.468Z,97160.25
2022-12-08T00:35:14.804Z,97146.41
2022-12-08T00:37:43.124Z,97147.38
2022-12-08T00:40:13.114Z,97144.88
2022-12-08T00:42:41.369Z,97144.88
2022-12-08T00:45:10.638Z,97144.03
2022-12-08T00:47:38.882Z,97146.78
2022-12-08T00:50:09.201Z,97141.66
2022-12-08T00:52:37.587Z,97142.63
2022-12-08T00:55:06.999Z,97146.09
2022-12-08T00:57:36.666Z,97137.50
2022-12-08T01:00:06.986Z,97138.47
2022-12-08T01:02:35.494Z,97133.22
2022-12-08T01:05:03.837Z,97138.47
2022-12-08T01:07:32.169Z,97141.09
2022-12-08T01:10:00.866Z,97134.28
2022-12-08T01:12:30.957Z,97130.72
2022-12-08T01:15:02.591Z,97135.00
2022-12-08T01:17:31.263Z,97135.84
2022-12-08T01:19:59.594Z,97137.50
2022-12-08T01:22:27.816Z,97140.25
2022-12-08T01:24:56.020Z,97145.50
2022-12-08T01:27:24.373Z,97137.75
2022-12-08T01:29:52.713Z,97144.78
2022-12-08T01:32:22.354Z,97150.91
2022-12-08T01:34:50.603Z,97146.59
2022-12-08T01:37:18.884Z,97147.59
2022-12-08T01:39:47.136Z,97143.25
2022-12-08T01:42:23.345Z,97143.41
2022-12-08T01:44:59.043Z,97139.09
2022-12-08T01:47:37.280Z,97129.69
2022-12-08T01:50:10.492Z,97141.75
2022-12-08T01:52:42.220Z,97134.81
2022-12-08T01:55:17.727Z,97138.38
2022-12-08T01:57:50.680Z,97132.44
2022-12-08T02:00:22.284Z,97134.38
2022-12-08T02:03:00.166Z,97136.28
2022-12-08T02:05:33.019Z,97132.13
2022-12-08T02:08:06.772Z,97127.84
2022-12-08T02:10:38.459Z,97114.81
2022-12-08T02:13:10.981Z,97114.06
2022-12-08T02:15:59.472Z,97113.34
2022-12-08T02:19:02.097Z,97113.59
2022-12-08T02:21:46.362Z,97100.72
2022-12-08T02:24:23.823Z,97099.91
2022-12-08T02:27:29.499Z,97093.09
2022-12-08T02:30:16.386Z,97092.41
2022-12-08T02:33:26.608Z,97090.72
2022-12-08T02:36:02.483Z,97091.69
2022-12-08T02:38:47.111Z,97087.41
2022-12-08T02:41:27.852Z,97091.69
2022-12-08T02:44:02.805Z,97090.59
2022-12-08T02:46:38.591Z,97089.78
2022-12-08T02:49:08.241Z,97079.97
2022-12-08T02:51:37.980Z,97082.47
2022-12-08T02:54:06.507Z,97076.25
2022-12-08T02:57:04.428Z,97080.69
2022-12-08T02:59:53.977Z,97079.69
2022-12-08T03:02:46.629Z,97082.34
2022-12-08T03:05:30.056Z,97074.56
2022-12-08T03:08:10.183Z,97065.28
2022-12-08T03:10:44.683Z,97074.84
2022-12-08T03:13:17.240Z,97068.03
2022-12-08T03:15:50.082Z,97065.28
2022-12-08T03:18:20.406Z,97055.63
2022-12-08T03:20:50.325Z,97051.31
2022-12-08T03:23:21.672Z,97053.69
2022-12-08T03:25:58.852Z,97045.81
2022-12-08T03:28:27.381Z,97044.84
2022-12-08T03:31:00.112Z,97049.16
2022-12-08T03:33:34.123Z,97039.59
2022-12-08T03:36:05.817Z,97044.72
2022-12-08T03:38:42.235Z,97047.34
2022-12-08T03:41:20.049Z,97050.66
2022-12-08T03:43:50.174Z,97052.47
2022-12-08T03:48:47.840Z,97041.97
2022-12-08T03:51:16.987Z,97036.59
2022-12-08T03:53:47.433Z,97034.91
2022-12-08T03:56:29.521Z,97036.72
2022-12-08T03:58:58.024Z,97034.09
2022-12-08T04:01:27.494Z,97035.03
2022-12-08T04:03:56.082Z,97035.03
2022-12-08T04:06:24.676Z,97040.28
2022-12-08T04:08:54.580Z,97030.75
2022-12-08T04:11:23.018Z,97036.84
2022-12-08T04:13:51.302Z,97030.75
2022-12-08T04:16:21.721Z,97033.38
2022-12-08T04:18:50.296Z,97028.13
2022-12-08T04:21:19.314Z,97027.41
2022-12-08T04:23:48.020Z,97028.38
2022-12-08T04:26:18.671Z,97028.38
2022-12-08T04:28:47.201Z,97039.03
2022-12-08T04:31:15.547Z,97041.50
2022-12-08T04:33:43.972Z,97033.63
2022-12-08T04:36:12.349Z,97027.53
2022-12-08T04:38:40.632Z,97027.53
2022-12-08T04:41:09.329Z,97032.78
2022-12-08T04:43:39.012Z,97031.97
2022-12-08T04:46:09.249Z,97023.25
2022-12-08T04:48:39.708Z,97020.75
2022-12-08T04:51:09.323Z,97012.16
2022-12-08T04:53:42.036Z,97022.66
2022-12-08T04:56:14.476Z,97022.78
2022-12-08T04:58:44.232Z,97031.53
2022-12-08T05:01:13.328Z,97025.56
2022-12-08T05:03:41.733Z,97032.63
2022-12-08T05:06:13.494Z,97015.19
2022-12-08T05:08:41.950Z,97017.00
2022-12-08T05:11:12.841Z,97011.03
2022-12-08T05:13:41.198Z,97019.88
2022-12-08T05:16:13.929Z,97018.19
2022-12-08T05:18:43.757Z,97016.78
2022-12-08T05:21:12.165Z,97026.34
2022-12-08T05:23:40.706Z,97021.34
2022-12-08T05:26:09.013Z,97015.66
2022-12-08T05:28:42.357Z,97008.03
2022-12-08T05:31:14.164Z,97011.75
2022-12-08T05:33:42.903Z,97012.00
2022-12-08T05:36:13.622Z,97011.41
2022-12-08T05:38:42.430Z,97009.28
2022-12-08T05:41:13.864Z,97005.16
2022-12-08T05:43:42.205Z,97002.78
2022-12-08T05:46:12.661Z,96999.44
2022-12-08T05:48:41.481Z,96992.53
2022-12-08T05:51:19.746Z,96997.78
2022-12-08T05:53:49.388Z,97003.84
2022-12-08T05:56:18.080Z,96997.19
2022-12-08T05:58:46.677Z,96991.34
2022-12-08T06:01:23.231Z,97004.59
2022-12-08T06:03:51.552Z,97002.09
2022-12-08T06:06:19.891Z,97002.38
2022-12-08T06:08:48.372Z,97004.41
2022-12-08T06:11:20.331Z,96999.41
2022-12-08T06:13:49.390Z,96994.16
2022-12-08T06:16:18.277Z,96989.75
2022-12-08T06:18:48.384Z,96992.25
2022-12-08T06:21:18.299Z,96994.16
2022-12-08T06:23:50.008Z,96999.16
2022-12-08T06:26:19.365Z,96999.41
2022-12-08T06:28:48.095Z,96998.44
2022-12-08T06:31:19.211Z,97003.44
2022-12-08T06:33:49.677Z,97009.06
2022-12-08T06:36:21.629Z,96996.66
2022-12-08T06:38:50.390Z,97001.78
2022-12-08T06:41:19.028Z,96991.41
2022-12-08T06:43:47.498Z,96992.13
2022-12-08T06:46:18.358Z,96991.16
2022-12-08T06:48:48.881Z,96993.66
2022-12-08T06:51:19.691Z,96989.38
2022-12-08T06:53:48.262Z,97001.28
2022-12-08T06:56:19.937Z,97002.94
2022-12-08T06:58:52.333Z,97006.41
2022-12-08T07:01:21.393Z,97009.84
2022-12-08T07:03:51.101Z,97008.91
2022-12-08T07:06:23.764Z,97005.31
2022-12-08T07:08:52.120Z,97007.81
2022-12-08T07:11:22.299Z,97006.84
2022-12-08T07:13:51.687Z,97005.91
2022-12-08T07:16:20.506Z,97010.91
2022-12-08T07:18:50.618Z,97012.44
2022-12-08T07:21:19.911Z,97010.91
2022-12-08T07:23:55.991Z,97014.22
2022-12-08T07:26:26.755Z,97010.53
2022-12-08T07:28:55.039Z,97005.16
2022-12-08T07:31:26.805Z,97010.41
2022-12-08T07:33:58.168Z,97010.28
2022-12-08T07:36:27.115Z,97008.31
2022-12-08T07:38:55.744Z,97007.38
2022-12-08T07:41:26.607Z,97010.69
2022-12-08T07:43:55.438Z,97013.19
2022-12-08T07:46:25.959Z,97015.69
2022-12-08T07:48:57.121Z,97013.06
2022-12-08T07:51:25.994Z,97000.66
2022-12-08T07:53:55.244Z,96999.56
2022-12-08T07:56:23.985Z,97013.41
2022-12-08T07:58:52.501Z,97010.53
2022-12-08T08:01:24.145Z,97025.19
2022-12-08T08:03:52.648Z,97024.00
2022-12-08T08:06:22.386Z,97019.41
2022-12-08T08:08:51.103Z,97009.75
2022-12-08T08:11:21.556Z,97016.41
2022-12-08T08:13:50.567Z,97020.69
2022-12-08T08:16:20.273Z,97017.13
2022-12-08T08:18:49.952Z,97026.66
2022-12-08T08:24:09.979Z,97015.19
2022-12-08T08:26:38.712Z,97016.72
2022-12-08T08:29:19.852Z,97016.59
2022-12-08T08:31:48.100Z,97022.41
2022-12-08T08:34:17.048Z,97023.84
2022-12-08T08:36:46.823Z,97028.56
2022-12-08T08:39:15.507Z,97022.94
2022-12-08T08:41:43.858Z,97022.56
2022-12-08T08:44:14.281Z,97021.34
2022-12-08T08:46:42.689Z,97017.34
2022-12-08T08:49:11.050Z,97024.16
2022-12-08T08:51:39.348Z,97022.91
2022-12-08T08:54:09.120Z,97026.22
2022-12-08T08:56:37.379Z,97014.78
2022-12-08T08:59:05.757Z,97015.31
2022-12-08T09:01:35.320Z,97014.50
2022-12-08T09:04:03.781Z,97014.91
2022-12-08T09:06:32.159Z,97016.47
2022-12-08T09:09:00.522Z,97011.91
2022-12-08T09:11:30.172Z,97010.81
2022-12-08T09:13:58.451Z,97003.47
2022-12-08T09:16:26.850Z,97008.47
2022-12-08T09:18:55.583Z,97004.91
2022-12-08T09:21:26.723Z,97003.66
2022-12-08T09:23:58.404Z,97003.53
2022-12-08T09:26:29.268Z,97005.03
2022-12-08T09:28:58.660Z,97009.91
2022-12-08T09:31:27.324Z,97005.34
2022-12-08T09:33:56.016Z,96996.34
2022-12-08T09:36:24.340Z,96984.88
2022-12-08T09:38:53.759Z,96989.03
2022-12-08T09:41:38.974Z,96983.63
2022-12-08T09:44:40.314Z,96982.50
2022-12-08T09:47:27.486Z,96982.50
2022-12-08T09:50:07.456Z,96980.59
2022-12-08T09:52:43.156Z,96979.34
2022-12-08T09:55:22.577Z,96973.81
2022-12-08T09:58:02.168Z,96973.53
2022-12-08T10:00:30.710Z,96967.28
2022-12-08T10:03:00.117Z,96966.06
2022-12-08T10:05:33.552Z,96958.03
2022-12-08T10:08:11.009Z,96955.28
2022-12-08T10:10:55.860Z,96957.75
2022-12-08T10:13:34.503Z,96958.31
2022-12-08T10:16:24.278Z,96955.53
2022-12-08T10:19:02.908Z,96946.53
2022-12-08T10:21:33.764Z,96943.63
2022-12-08T10:24:14.111Z,96942.53
2022-12-08T10:26:42.493Z,96947.50
2022-12-08T10:29:14.526Z,96942.63
2022-12-08T10:31:43.413Z,96944.19
2022-12-08T10:34:19.605Z,96942.34
2022-12-08T10:36:51.577Z,96943.91
2022-12-08T10:39:34.625Z,96932.38
2022-12-08T10:42:17.955Z,96922.56
2022-12-08T10:45:21.526Z,96924.06
2022-12-08T10:48:00.302Z,96917.81
2022-12-08T10:50:35.716Z,96914.78
2022-12-08T10:53:16.775Z,96910.19
2022-12-08T10:55:47.703Z,96908.94
2022-12-08T10:58:31.398Z,96906.03
2022-12-08T11:01:05.688Z,96896.19
2022-12-08T11:03:45.670Z,96891.47
2022-12-08T11:06:19.992Z,96890.22
2022-12-08T11:08:53.026Z,96890.91
2022-12-08T11:11:29.057Z,96877.72
2022-12-08T11:13:57.882Z,96885.88
2022-12-08T11:16:29.055Z,96880.31
2022-12-08T11:18:59.453Z,96879.88
2022-12-08T11:21:37.728Z,96872.81
2022-12-08T11:24:24.447Z,96868.91
2022-12-08T11:26:57.650Z,96859.88
2022-12-08T11:29:25.961Z,96865.72
2022-12-08T11:32:02.216Z,96861.13
2022-12-08T11:34:38.022Z,96858.50
2022-12-08T11:37:10.881Z,96850.59
2022-12-08T11:39:51.444Z,96847.81
2022-12-08T11:42:24.660Z,96845.03
2022-12-08T11:44:58.380Z,96840.56
2022-12-08T11:47:32.318Z,96844.19
2022-12-08T11:50:18.093Z,96843.19
2022-12-08T11:52:51.587Z,96843.19
2022-12-08T11:55:37.129Z,96852.25
2022-12-08T11:58:19.301Z,96844.47
2022-12-08T12:00:47.662Z,96842.28
2022-12-08T12:03:29.756Z,96835.50
2022-12-08T12:09:19.455Z,96827.19
2022-12-08T12:12:16.606Z,96828.31
2022-12-08T12:15:15.749Z,96821.84
2022-12-08T12:17:49.203Z,96828.47
2022-12-08T12:20:25.649Z,96822.22
2022-12-08T12:23:00.077Z,96812.50
2022-12-08T12:25:29.392Z,96810.84
2022-12-08T12:28:03.855Z,96812.38
2022-12-08T12:30:53.232Z,96810.41
2022-12-08T12:33:23.857Z,96807.47
2022-12-08T12:35:57.109Z,96799.13
2022-12-08T12:38:50.562Z,96785.66
2022-12-08T12:41:25.708Z,96792.16
2022-12-08T12:44:26.895Z,96790.06
2022-12-08T12:46:58.553Z,96798.53
2022-12-08T12:49:53.496Z,96795.59
2022-12-08T12:52:41.987Z,96794.31
2022-12-08T12:55:29.975Z,96799.16
2022-12-08T12:57:59.862Z,96792.63
2022-12-08T13:00:29.065Z,96791.34
2022-12-08T13:02:59.166Z,96790.06
2022-12-08T13:05:30.577Z,96780.06
2022-12-08T13:08:05.123Z,96786.69
2022-12-08T13:10:36.605Z,96784.59
2022-12-08T13:13:19.151Z,96772.06
2022-12-08T13:15:53.443Z,96774.53
2022-12-08T13:18:26.211Z,96769.94
2022-12-08T13:21:03.853Z,96772.59
2022-12-08T13:23:47.769Z,96772.28
2022-12-08T13:26:22.294Z,96776.56
2022-12-08T13:29:22.774Z,96772.28
2022-12-08T13:31:53.758Z,96776.72
2022-12-08T13:34:30.727Z,96772.44
2022-12-08T13:37:14.981Z,96772.59
2022-12-08T13:39:51.067Z,96777.88
2022-12-08T13:42:26.150Z,96779.66
2022-12-08T13:59:33.863Z,96775.28
2022-12-08T14:02:06.771Z,96759.47
2022-12-08T14:05:09.114Z,96766.28
2022-12-08T14:07:24.946Z,96761.66
2022-12-08T14:09:54.025Z,96764.13
2022-12-08T14:12:26.740Z,96765.97
2022-12-08T14:15:14.777Z,96761.50
2022-12-08T14:17:52.823Z,96759.00
2022-12-08T14:20:25.800Z,96766.28
2022-12-08T14:22:54.843Z,96767.06
2022-12-08T14:25:24.523Z,96775.00
2022-12-08T14:28:00.692Z,96772.34
2022-12-08T14:30:32.971Z,96765.44
2022-12-08T14:33:03.624Z,96775.13
2022-12-08T14:35:34.316Z,96769.72
2022-12-08T14:38:05.086Z,96766.28
2022-12-08T14:40:36.718Z,96758.34
2022-12-08T14:43:17.827Z,96765.13
2022-12-08T14:45:53.393Z,96757.22
2022-12-08T14:48:27.031Z,96762.66
2022-12-08T14:51:21.054Z,96754.88
2022-12-08T14:53:54.957Z,96751.25
2022-12-08T14:56:27.343Z,96756.53
2022-12-08T14:59:11.696Z,96754.72
2022-12-08T15:01:40.383Z,96753.75
2022-12-08T15:04:17.017Z,96757.22
2022-12-08T15:06:54.435Z,96757.38
2022-12-08T15:09:33.688Z,96758.34
2022-12-08T15:12:03.304Z,96758.34
2022-12-08T15:14:36.909Z,96759.31
2022-12-08T15:17:29.748Z,96757.81
2022-12-08T15:19:59.054Z,96762.41
2022-12-08T15:22:27.715Z,96758.25
2022-12-08T15:24:56.836Z,96754.94
2022-12-08T15:27:27.130Z,96752.44
2022-12-08T15:29:56.729Z,96760.50
2022-12-08T15:32:25.313Z,96759.69
2022-12-08T15:34:53.567Z,96760.84
2022-12-08T15:37:24.726Z,96754.03
2022-12-08T15:39:53.856Z,96752.53
2022-12-08T15:42:22.112Z,96758.09
2022-12-08T15:44:51.478Z,96753.97
2022-12-08T15:47:24.436Z,96753.44
2022-12-08T15:49:53.792Z,96751.09
2022-12-08T15:52:24.767Z,96735.16
2022-12-08T15:54:53.116Z,96746.81
2022-12-08T16:00:51.832Z,96741.88
2022-12-08T16:09:12.900Z,96752.25
2022-12-08T16:12:08.883Z,96746.47
2022-12-08T16:17:28.637Z,96756.19
2022-12-08T16:19:58.381Z,96749.28
2022-12-08T16:25:20.392Z,96754.81
2022-12-08T16:28:29.530Z,96754.28
2022-12-08T16:30:39.509Z,96757.34
2022-12-08T16:33:07.919Z,96755.84
2022-12-08T16:35:37.510Z,96758.59
2022-12-08T16:38:05.985Z,96760.69
2022-12-08T16:40:54.417Z,96761.66
2022-12-08T16:43:21.719Z,96754.91
2022-12-08T16:45:49.997Z,96762.25
2022-12-08T16:48:18.394Z,96760.03
2022-12-08T16:50:48.058Z,96758.38
2022-12-08T16:53:16.555Z,96763.94
2022-12-08T16:55:48.212Z,96759.81
2022-12-08T16:58:18.349Z,96750.50
2022-12-08T17:00:46.997Z,96760.38
2022-12-08T17:03:17.548Z,96753.56
2022-12-08T17:05:47.329Z,96751.09
2022-12-08T17:08:15.754Z,96756.47
2022-12-08T17:10:44.114Z,96748.06
2022-12-08T17:13:13.128Z,96748.34
2022-12-08T17:15:41.603Z,96751.13
2022-12-08T17:18:09.840Z,96743.50
2022-12-08T17:20:38.152Z,96750.72
2022-12-08T17:23:07.792Z,96745.59
2022-12-08T17:25:37.343Z,96746.72
2022-12-08T17:28:05.822Z,96741.72
2022-12-08T17:30:34.072Z,96755.16
2022-12-08T17:33:02.305Z,96756.28
2022-12-08T17:35:30.526Z,96750.31
2022-12-08T17:37:58.752Z,96759.47
2022-12-08T17:40:28.579Z,96748.41
2022-12-08T17:42:56.888Z,96753.78
2022-12-08T17:45:25.203Z,96741.75
2022-12-08T17:47:53.442Z,96749.94
2022-12-08T17:50:21.857Z,96753.66
2022-12-08T17:52:51.222Z,96756.56
2022-12-08T17:55:19.466Z,96753.13
2022-12-08T17:57:49.106Z,96748.81
2022-12-08T18:00:17.896Z,96748.13
2022-12-08T18:02:46.154Z,96743.81
2022-12-08T18:05:14.445Z,96741.19
2022-12-08T18:07:42.770Z,96738.72
2022-12-08T18:10:11.176Z,96735.53
2022-12-08T18:12:39.540Z,96736.50
2022-12-08T18:15:13.015Z,96740.25
2022-12-08T18:17:41.272Z,96745.63
2022-12-08T18:20:11.217Z,96740.38
2022-12-08T18:22:39.558Z,96742.03
2022-12-08T18:25:09.505Z,96738.72
2022-12-08T18:27:43.027Z,96738.88
2022-12-08T18:30:19.075Z,96749.53
2022-12-08T18:32:47.710Z,96734.69
2022-12-08T18:35:16.180Z,96731.41
2022-12-08T18:37:44.549Z,96730.56
2022-12-08T18:40:14.644Z,96733.31
2022-12-08T18:42:43.030Z,96731.81
2022-12-08T18:45:17.902Z,96727.53
2022-12-08T18:47:51.319Z,96724.06
2022-12-08T18:50:19.975Z,96722.56
2022-12-08T18:52:48.681Z,96729.31
2022-12-08T18:55:17.144Z,96736.22
2022-12-08T18:57:45.482Z,96734.44
2022-12-08T19:00:18.955Z,96735.56
2022-12-08T19:02:47.463Z,96731.50
2022-12-08T19:05:16.451Z,96735.69
2022-12-08T19:07:45.602Z,96739.25
2022-12-08T19:10:14.271Z,96748.13
2022-12-08T19:12:42.841Z,96743.00
2022-12-08T19:15:12.331Z,96740.38
2022-12-08T19:17:42.067Z,96744.00
2022-12-08T19:20:12.140Z,96739.69
2022-12-08T19:22:40.479Z,96731.78
2022-12-08T19:25:09.632Z,96740.66
2022-12-08T19:27:37.896Z,96730.38
2022-12-08T19:30:08.458Z,96729.97
2022-12-08T19:32:36.997Z,96726.53
2022-12-08T19:35:07.541Z,96724.03
2022-12-08T19:37:36.125Z,96719.03
2022-12-08T19:40:22.332Z,96723.72
2022-12-08T19:43:08.014Z,96729.25
2022-12-08T19:45:37.700Z,96715.84
2022-12-08T19:48:06.852Z,96715.16
2022-12-08T19:50:40.525Z,96706.84
2022-12-08T19:53:12.190Z,96711.41
2022-12-08T19:55:41.359Z,96711.69
2022-12-08T19:58:11.209Z,96713.03
2022-12-08T20:00:41.283Z,96721.91
2022-12-08T20:03:11.571Z,96731.69
2022-12-08T20:05:43.039Z,96729.34
2022-12-08T20:08:12.043Z,96725.06
2022-12-08T20:10:44.026Z,96727.81
2022-12-08T20:13:30.854Z,96719.25
2022-12-08T20:15:59.533Z,96728.22
2022-12-08T20:18:28.811Z,96726.72
2022-12-08T20:20:58.585Z,96726.84
2022-12-08T20:23:26.951Z,96726.13
2022-12-08T20:25:55.316Z,96718.53
2022-12-08T20:28:23.800Z,96718.66
2022-12-08T20:30:52.469Z,96723.19
2022-12-08T20:33:21.168Z,96721.69
2022-12-08T20:36:00.845Z,96722.09
2022-12-08T20:38:29.925Z,96712.69
2022-12-08T20:40:59.064Z,96713.09
2022-12-08T20:43:27.730Z,96704.78
2022-12-08T20:45:59.207Z,96711.00
2022-12-08T20:48:27.864Z,96706.16
2022-12-08T20:50:56.224Z,96724.38
2022-12-08T20:53:26.036Z,96720.09
2022-12-08T20:55:54.812Z,96722.72
2022-12-08T20:58:23.835Z,96724.50
2022-12-08T21:00:52.394Z,96722.03
2022-12-08T21:03:20.902Z,96722.16
2022-12-08T21:05:51.017Z,96719.53
2022-12-08T21:08:20.516Z,96724.91
2022-12-08T21:10:56.150Z,96724.19
2022-12-08T21:13:25.036Z,96725.16
2022-12-08T21:15:53.829Z,96719.91
2022-12-08T21:18:22.705Z,96725.16
2022-12-08T21:20:51.542Z,96725.31
2022-12-08T21:23:20.175Z,96727.09
2022-12-08T21:25:49.118Z,96722.81
2022-12-08T21:28:18.982Z,96722.81
2022-12-08T21:30:47.473Z,96728.19
2022-12-08T21:33:15.997Z,96721.41
2022-12-08T21:35:44.650Z,96719.06
2022-12-08T21:38:13.121Z,96716.69
2022-12-08T21:40:41.527Z,96716.56
2022-12-08T21:43:10.101Z,96715.00
2022-12-08T21:45:39.968Z,96719.31
2022-12-08T21:48:11.713Z,96714.88
2022-12-08T21:50:40.567Z,96714.88
2022-12-08T21:53:09.112Z,96718.34
2022-12-08T21:55:37.666Z,96717.50
2022-12-08T21:58:06.228Z,96713.22
2022-12-08T22:00:34.689Z,96711.00
2022-12-08T22:03:05.539Z,96708.50
2022-12-08T22:05:36.611Z,96708.78
2022-12-08T22:08:05.112Z,96710.84
2022-12-08T22:10:33.735Z,96712.88
2022-12-08T22:13:02.281Z,96711.50
2022-12-08T22:18:11.464Z,96699.72
2022-12-08T22:20:44.185Z,96704.53
2022-12-08T22:23:12.985Z,96699.28
2022-12-08T22:25:41.315Z,96704.78
2022-12-08T22:28:09.594Z,96705.72
2022-12-08T22:30:39.695Z,96693.72
2022-12-08T22:33:09.452Z,96705.97
2022-12-08T22:35:37.744Z,96701.00
2022-12-08T22:38:06.029Z,96705.44
2022-12-08T22:40:34.308Z,96708.88
2022-12-08T22:43:02.814Z,96703.63
2022-12-08T22:45:31.257Z,96703.63
2022-12-08T22:47:59.768Z,96715.06
2022-12-08T22:50:29.427Z,96706.38
2022-12-08T22:52:57.702Z,96714.09
2022-12-08T22:55:26.008Z,96707.22
2022-12-08T22:57:54.331Z,96702.09
2022-12-08T23:00:22.708Z,96700.44
2022-12-08T23:02:51.256Z,96701.25
2022-12-08T23:05:19.852Z,96703.88
2022-12-08T23:07:49.553Z,96699.47
2022-12-08T23:10:18.880Z,96694.38
2022-12-08T23:12:47.134Z,96695.47
2022-12-08T23:15:15.530Z,96701.50
2022-12-08T23:17:44.005Z,96704.13
2022-12-08T23:20:13.869Z,96699.03
2022-12-08T23:22:42.107Z,96691.28
2022-12-08T23:25:11.889Z,96691.28
2022-12-08T23:27:40.351Z,96688.78
2022-12-08T23:30:10.791Z,96679.41
2022-12-08T23:32:39.641Z,96669.91
2022-12-08T23:35:09.588Z,96671.00
2022-12-08T23:37:38.033Z,96660.63
2022-12-08T23:40:08.868Z,96664.19
2022-12-08T23:42:38.902Z,96665.16
2022-12-08T23:45:09.573Z,96664.31
2022-12-08T23:47:38.056Z,96664.31
2022-12-08T23:50:08.673Z,96657.56
2022-12-08T23:52:39.513Z,96653.28
2022-12-08T23:55:11.154Z,96656.97
2022-12-08T23:57:41.028Z,96658.91
